Paddy Guidry — WTG3900 — position and weather

sailwx.info

Track history (hours):
 
Tides and Currents Weather Stations Pressure Air Temp Water Temp Dewpoint Dewpoint Depression Visibility Wind Speed Wind Dir Waves Ship Positions

Paddy Guidry

Owner: CAPTAIN TIMMY INC, GALLIANO, LA. More information available from US FCC via Universal Licensing System and Coast Guard Vessel Documentation Center.

Last reported at 2016-Aug-26 11:30 UTC. Time now 2016-Aug-27 15:12 UTC.
Position N 29°32' W 090°51'.

; draft 1.5 m.

Type: Tug. MMSI: 366998310.

Date/timePositionNaut miles runAvg speedWind from/ knotsBaromVisibWave heightAir tempDewpointWater temp
2016-Aug-26 11:30N 29°32' W 090°51'3 3.7
2016-Aug-26 10:33N 29°32' W 090°47'3 3.0
2016-Aug-26 09:34N 29°34' W 090°44'1 1.3
2016-Aug-26 08:33N 29°34' W 090°43'0 0.0
2016-Aug-26 07:34N 29°34' W 090°43'1 1.4
2016-Aug-26 06:34N 29°33' W 090°42'8 3.9
2016-Aug-26 04:33N 29°25' W 090°43'4 3.7
2016-Aug-26 03:33N 29°22' W 090°44'1 0.0
2016-Aug-24 12:24N 29°22' W 090°44'4 4.9
2016-Aug-24 11:33N 29°26' W 090°43'5 4.7
2016-Aug-24 10:33N 29°31' W 090°43'4 3.5
2016-Aug-24 09:33N 29°34' W 090°43'4 3.8
2016-Aug-24 08:33N 29°32' W 090°47'4 4.4
2016-Aug-24 07:32N 29°32' W 090°52'4 3.7
2016-Aug-24 06:33N 29°34' W 090°56'3 0.1
2016-Aug-23 01:28N 29°36' W 090°58'6 6.5
2016-Aug-23 00:33N 29°32' W 090°53'6 6.2
2016-Aug-22 23:33N 29°32' W 090°46'4 4.4
2016-Aug-22 22:34N 29°36' W 090°43'3 3.3
2016-Aug-22 21:33N 29°36' W 090°39'5 5.1
2016-Aug-22 20:33N 29°34' W 090°33'  
Track history (hours):
 
Tides and Currents Weather Stations Pressure Air Temp Water Temp Dewpoint Dewpoint Depression Visibility Wind Speed Wind Dir Waves Ship Positions

Paddy Guidry

Owner: CAPTAIN TIMMY INC, GALLIANO, LA. More information available from US FCC via Universal Licensing System and Coast Guard Vessel Documentation Center.

Last reported at 2016-Aug-26 11:30 UTC. Time now 2016-Aug-27 15:12 UTC.
Position N 29°32' W 090°51'.

; draft 1.5 m.

Type: Tug. MMSI: 366998310.

Date/timePositionNaut miles runAvg speedWind from/ knotsBaromVisibWave heightAir tempDewpointWater temp
2016-Aug-26 11:30N 29°32' W 090°51'3 3.7
2016-Aug-26 10:33N 29°32' W 090°47'3 3.0
2016-Aug-26 09:34N 29°34' W 090°44'1 1.3
2016-Aug-26 08:33N 29°34' W 090°43'0 0.0
2016-Aug-26 07:34N 29°34' W 090°43'1 1.4
2016-Aug-26 06:34N 29°33' W 090°42'8 3.9
2016-Aug-26 04:33N 29°25' W 090°43'4 3.7
2016-Aug-26 03:33N 29°22' W 090°44'1 0.0
2016-Aug-24 12:24N 29°22' W 090°44'4 4.9
2016-Aug-24 11:33N 29°26' W 090°43'5 4.7
2016-Aug-24 10:33N 29°31' W 090°43'4 3.5
2016-Aug-24 09:33N 29°34' W 090°43'4 3.8
2016-Aug-24 08:33N 29°32' W 090°47'4 4.4
2016-Aug-24 07:32N 29°32' W 090°52'4 3.7
2016-Aug-24 06:33N 29°34' W 090°56'3 0.1
2016-Aug-23 01:28N 29°36' W 090°58'6 6.5
2016-Aug-23 00:33N 29°32' W 090°53'6 6.2
2016-Aug-22 23:33N 29°32' W 090°46'4 4.4
2016-Aug-22 22:34N 29°36' W 090°43'3 3.3
2016-Aug-22 21:33N 29°36' W 090°39'5 5.1
2016-Aug-22 20:33N 29°34' W 090°33'  

Dump ship's entire track history